M V Stampede — V70B4 — position and weather

sailwx.info

Track history (hours):
 
Tides and Currents Weather Stations Pressure Air Temp Water Temp Dewpoint Dewpoint Depression Visibility Wind Speed Wind Dir Waves Ship Positions

M V Stampede

Last reported at 2016-May-02 06:10 UTC. Time now 2016-May-03 03:01 UTC.
Position N 39°35' W 124°11'.

Length 35 m; draft 3.2 m.

Type: Pleasure craft. MMSI: 538070463.

Date/timePositionNaut miles runAvg speedWind from/ knotsBaromVisibWave heightAir tempDewpointWater temp
2016-May-02 06:10N 39°35' W 124°11'6910.1
2016-May-01 23:17N 38°32' W 123°33'7 9.7
2016-May-01 22:33N 38°26' W 123°29'9 9.4
2016-May-01 21:33N 38°18' W 123°23'9 9.3
2016-May-01 20:33N 38°10' W 123°17'9 9.4
2016-May-01 19:33N 38°02' W 123°11'9 9.2
2016-May-01 18:33N 37°56' W 123°02'10 9.8
2016-May-01 17:33N 37°51' W 122°51'10 9.8
2016-May-01 16:32N 37°46' W 122°40'9 9.3
2016-May-01 15:33N 37°49' W 122°30'3 0.9
2016-May-01 12:27N 37°52' W 122°29'0 0.0
2016-May-01 10:30N 37°52' W 122°29'0 0.0
2016-May-01 09:30N 37°52' W 122°29'0 0.0
2016-May-01 08:30N 37°52' W 122°29'0 0.0
2016-May-01 07:24N 37°52' W 122°29'0 0.0
2016-May-01 06:12N 37°52' W 122°29'0 0.0
2016-May-01 05:27N 37°52' W 122°29'0 0.0
2016-May-01 04:18N 37°52' W 122°29'0 0.0
2016-May-01 03:12N 37°52' W 122°29'0 0.0
2016-May-01 02:24N 37°52' W 122°29'0 0.0
2016-May-01 01:24N 37°52' W 122°29'0 0.0
2016-Apr-30 23:33N 37°52' W 122°29'0 0.0
2016-Apr-30 22:33N 37°52' W 122°29'0 0.0
2016-Apr-30 20:33N 37°52' W 122°29'0 0.0
2016-Apr-30 19:21N 37°52' W 122°29'0 0.0
2016-Apr-30 18:33N 37°52' W 122°29'0 0.0
2016-Apr-30 17:33N 37°52' W 122°29'0 0.0
2016-Apr-30 16:24N 37°52' W 122°29'0 0.0
2016-Apr-30 15:24N 37°52' W 122°29'0 0.0
2016-Apr-30 14:27N 37°52' W 122°29'0 0.0
2016-Apr-30 13:24N 37°52' W 122°29'0 0.0
2016-Apr-30 12:24N 37°52' W 122°29'0 0.0
2016-Apr-30 11:27N 37°52' W 122°29'0 0.0
2016-Apr-30 10:30N 37°52' W 122°29'0 0.0
2016-Apr-30 09:27N 37°52' W 122°29'0 0.0
2016-Apr-30 08:30N 37°52' W 122°29'0 0.0
2016-Apr-30 04:24N 37°52' W 122°29'0 0.0
2016-Apr-30 00:30N 37°52' W 122°29'0 0.0
2016-Apr-29 23:33N 37°52' W 122°29'0 0.0
2016-Apr-29 21:30N 37°52' W 122°29'0 0.0
2016-Apr-29 18:15N 37°52' W 122°29'0 0.0
2016-Apr-29 12:12N 37°52' W 122°29'0 0.0
2016-Apr-29 11:24N 37°52' W 122°29'0 0.0
2016-Apr-29 10:30N 37°52' W 122°29'0 0.0
2016-Apr-29 08:21N 37°52' W 122°29'0 0.0
2016-Apr-29 07:18N 37°52' W 122°29'0 0.0
2016-Apr-29 04:30N 37°52' W 122°29'0 0.0
2016-Apr-29 03:24N 37°52' W 122°29'0 0.0
2016-Apr-29 02:30N 37°52' W 122°29'0 0.0
2016-Apr-29 00:24N 37°52' W 122°29'0 0.0
2016-Apr-28 23:33N 37°52' W 122°29'0 0.0
2016-Apr-28 22:30N 37°52' W 122°29'0 0.0
2016-Apr-28 21:27N 37°52' W 122°29'0 0.0
2016-Apr-28 20:33N 37°52' W 122°29'0 0.0
2016-Apr-28 19:33N 37°52' W 122°29'0 0.0
2016-Apr-28 18:27N 37°52' W 122°29'0 0.0
2016-Apr-28 17:33N 37°52' W 122°29'0 0.0
2016-Apr-28 16:18N 37°52' W 122°29'0 0.0
2016-Apr-28 15:06N 37°52' W 122°29'0 0.0
2016-Apr-28 14:24N 37°52' W 122°29'0 0.0
2016-Apr-28 13:33N 37°52' W 122°29'0 0.0
2016-Apr-28 09:30N 37°52' W 122°29'0 0.0
2016-Apr-28 08:18N 37°52' W 122°29'0 0.0
2016-Apr-28 07:18N 37°52' W 122°29'0 0.0
2016-Apr-28 06:30N 37°52' W 122°29'0 0.0
2016-Apr-28 05:24N 37°52' W 122°29'0 0.0
2016-Apr-28 04:24N 37°52' W 122°29'0 0.0
2016-Apr-28 00:30N 37°52' W 122°29'0 0.0
2016-Apr-27 23:18N 37°52' W 122°29'0 0.0
2016-Apr-27 22:24N 37°52' W 122°29'0 0.0
2016-Apr-27 20:18N 37°52' W 122°29'0 0.0
2016-Apr-27 19:09N 37°52' W 122°29'0 0.0
2016-Apr-27 18:30N 37°52' W 122°29'0 0.0
2016-Apr-27 16:30N 37°52' W 122°29'0 0.0
2016-Apr-27 15:30N 37°52' W 122°29'0 0.0
2016-Apr-27 14:30N 37°52' W 122°29'0 0.0
2016-Apr-27 13:18N 37°52' W 122°29'0 0.0
2016-Apr-27 12:18N 37°52' W 122°29'0 0.0
2016-Apr-27 11:33N 37°52' W 122°29'0 0.0
2016-Apr-27 10:33N 37°52' W 122°29'0 0.0
2016-Apr-27 09:24N 37°52' W 122°29'0 0.0
2016-Apr-27 08:33N 37°52' W 122°29'0 0.0
2016-Apr-27 07:30N 37°52' W 122°29'0 0.0
2016-Apr-27 06:30N 37°52' W 122°29'0 0.0
2016-Apr-27 05:30N 37°52' W 122°29'0 0.0
2016-Apr-27 04:33N 37°52' W 122°29'0 0.0
2016-Apr-27 03:33N 37°52' W 122°29'0 0.0
2016-Apr-27 02:33N 37°52' W 122°29'0 0.0
2016-Apr-27 01:30N 37°52' W 122°29'0 0.0
2016-Apr-27 00:24N 37°52' W 122°29'0 0.0
2016-Apr-26 23:30N 37°52' W 122°29'0 0.0
2016-Apr-26 22:30N 37°52' W 122°29'0 0.0
2016-Apr-26 21:30N 37°52' W 122°29'0 0.0
2016-Apr-26 20:30N 37°52' W 122°29'0 0.0
2016-Apr-26 19:24N 37°52' W 122°29'0 0.0
2016-Apr-26 18:33N 37°52' W 122°29'0 0.0
2016-Apr-26 16:12N 37°52' W 122°29'0 0.0
2016-Apr-26 15:30N 37°52' W 122°29'0 0.0
2016-Apr-26 14:30N 37°52' W 122°29'0 0.0
2016-Apr-26 13:30N 37°52' W 122°29'0 0.0
2016-Apr-26 11:18N 37°52' W 122°29'0 0.0
2016-Apr-26 10:30N 37°52' W 122°29'0 0.0
2016-Apr-26 09:30N 37°52' W 122°29'0 0.0
2016-Apr-26 08:30N 37°52' W 122°29'0 0.0
2016-Apr-26 07:18N 37°52' W 122°29'0 0.0
2016-Apr-26 06:24N 37°52' W 122°29'0 0.0
2016-Apr-26 05:30N 37°52' W 122°29'0 0.0
2016-Apr-26 04:24N 37°52' W 122°29'0 0.0
2016-Apr-26 03:30N 37°52' W 122°29'0 0.0
2016-Apr-26 02:30N 37°52' W 122°29'0 0.0
2016-Apr-26 01:24N 37°52' W 122°29'0 0.0
2016-Apr-26 00:30N 37°52' W 122°29'0 0.0
2016-Apr-25 23:14N 37°52' W 122°29'0 0.0
2016-Apr-25 22:32N 37°52' W 122°29'0 0.0
2016-Apr-25 21:29N 37°52' W 122°29'0 0.0
2016-Apr-25 20:30N 37°52' W 122°29'0 0.0
2016-Apr-25 19:30N 37°52' W 122°29'0 0.0
2016-Apr-25 18:29N 37°52' W 122°29'0 0.0
2016-Apr-25 17:17N 37°52' W 122°29'0 0.0
2016-Apr-25 16:29N 37°52' W 122°29'0 0.0
2016-Apr-25 15:29N 37°52' W 122°29'0 0.0
2016-Apr-25 14:32N 37°52' W 122°29'0 0.0
2016-Apr-25 13:32N 37°52' W 122°29'0 0.0
2016-Apr-25 12:32N 37°52' W 122°29'0 0.0
2016-Apr-25 11:26N 37°52' W 122°29'0 0.0
2016-Apr-25 07:32N 37°52' W 122°29'0 0.0
2016-Apr-25 06:32N 37°52' W 122°29'0 0.0
2016-Apr-25 05:32N 37°52' W 122°29'0 0.0
2016-Apr-25 04:05N 37°52' W 122°29'0 0.0
2016-Apr-25 03:29N 37°52' W 122°29'0 0.0
2016-Apr-25 02:29N 37°52' W 122°29'0 0.0
2016-Apr-25 01:29N 37°52' W 122°29'0 0.0
2016-Apr-25 00:29N 37°52' W 122°29'0 0.0
2016-Apr-24 23:29N 37°52' W 122°29'0 0.0
2016-Apr-24 22:26N 37°52' W 122°29'0 0.0
2016-Apr-24 21:32N 37°52' W 122°29'0 0.0
2016-Apr-24 20:29N 37°52' W 122°29'0 0.0
2016-Apr-24 19:17N 37°52' W 122°29'0 0.0
2016-Apr-24 18:29N 37°52' W 122°29'0 0.0
2016-Apr-24 17:23N 37°52' W 122°29'0 0.0
2016-Apr-24 16:11N 37°52' W 122°29'0 0.0
2016-Apr-24 15:29N 37°52' W 122°29'0 0.0
2016-Apr-24 14:32N 37°52' W 122°29'0 0.0
2016-Apr-24 13:29N 37°52' W 122°29'0 0.0
2016-Apr-24 12:29N 37°52' W 122°29'0 0.0
2016-Apr-24 11:29N 37°52' W 122°29'0 0.0
2016-Apr-24 10:29N 37°52' W 122°29'0 0.0
2016-Apr-24 09:29N 37°52' W 122°29'0 0.0
2016-Apr-24 08:29N 37°52' W 122°29'0 0.0
2016-Apr-24 07:17N 37°52' W 122°29'0 0.0
2016-Apr-24 06:29N 37°52' W 122°29'0 0.0
2016-Apr-24 05:29N 37°52' W 122°29'0 0.0
2016-Apr-24 04:32N 37°52' W 122°29'0 0.0
2016-Apr-24 03:29N 37°52' W 122°29'0 0.0
2016-Apr-24 02:29N 37°52' W 122°29'0 0.0
2016-Apr-24 01:29N 37°52' W 122°29'0 0.0
2016-Apr-24 00:29N 37°52' W 122°29'0 0.0
2016-Apr-23 23:32N 37°52' W 122°29'0 0.0
2016-Apr-23 22:32N 37°52' W 122°29'0 0.0
2016-Apr-23 21:23N 37°52' W 122°29'0 0.0
2016-Apr-23 20:29N 37°52' W 122°29'0 0.0
2016-Apr-23 19:29N 37°52' W 122°29'0 0.0
2016-Apr-23 18:29N 37°52' W 122°29'0 0.0
2016-Apr-23 17:29N 37°52' W 122°29'0 0.0
2016-Apr-23 16:29N 37°52' W 122°29'0 0.0
2016-Apr-23 15:17N 37°52' W 122°29'0 0.0
2016-Apr-23 14:23N 37°52' W 122°29'0 0.0
2016-Apr-23 13:29N 37°52' W 122°29'0 0.0
2016-Apr-23 12:17N 37°52' W 122°29'0 0.0
2016-Apr-23 11:29N 37°52' W 122°29'0 0.0
2016-Apr-23 10:17N 37°52' W 122°29'0 0.0
2016-Apr-23 09:29N 37°52' W 122°29'0 0.0
2016-Apr-23 08:32N 37°52' W 122°29'0 0.0
2016-Apr-23 07:29N 37°52' W 122°29'0 0.0
2016-Apr-23 06:29N 37°52' W 122°29'0 0.0
2016-Apr-23 05:29N 37°52' W 122°29'0 0.0
2016-Apr-23 04:29N 37°52' W 122°29'0 0.0
2016-Apr-23 03:29N 37°52' W 122°29'0 0.0
2016-Apr-23 02:29N 37°52' W 122°29'0 0.0
2016-Apr-23 01:29N 37°52' W 122°29'0 0.0
2016-Apr-23 00:29N 37°52' W 122°29'0 0.0
2016-Apr-22 23:32N 37°52' W 122°29'0 0.0
2016-Apr-22 22:29N 37°52' W 122°29'0 0.0
2016-Apr-22 21:32N 37°52' W 122°29'0 0.0
2016-Apr-22 20:29N 37°52' W 122°29'0 0.0
2016-Apr-22 19:29N 37°52' W 122°29'0 0.0
2016-Apr-22 18:23N 37°52' W 122°29'0 0.0
2016-Apr-22 17:29N 37°52' W 122°29'0 0.0
2016-Apr-22 16:32N 37°52' W 122°29'0 0.0
2016-Apr-22 15:23N 37°52' W 122°29'0 0.0
2016-Apr-22 14:32N 37°52' W 122°29'0 0.0
2016-Apr-22 13:29N 37°52' W 122°29'0 0.0
2016-Apr-22 12:32N 37°52' W 122°29'0 0.0
2016-Apr-22 11:32N 37°52' W 122°29'0 0.0
2016-Apr-22 10:29N 37°52' W 122°29'0 0.0
2016-Apr-22 09:29N 37°52' W 122°29'0 0.0
2016-Apr-22 08:32N 37°52' W 122°29'0 0.0
2016-Apr-22 07:29N 37°52' W 122°29'0 0.0
2016-Apr-22 06:29N 37°52' W 122°29'  
Track history (hours):
 
Tides and Currents Weather Stations Pressure Air Temp Water Temp Dewpoint Dewpoint Depression Visibility Wind Speed Wind Dir Waves Ship Positions

M V Stampede

Last reported at 2016-May-02 06:10 UTC. Time now 2016-May-03 03:01 UTC.
Position N 39°35' W 124°11'.

Length 35 m; draft 3.2 m.

Type: Pleasure craft. MMSI: 538070463.

Date/timePositionNaut miles runAvg speedWind from/ knotsBaromVisibWave heightAir tempDewpointWater temp
2016-May-02 06:10N 39°35' W 124°11'6910.1
2016-May-01 23:17N 38°32' W 123°33'7 9.7
2016-May-01 22:33N 38°26' W 123°29'9 9.4
2016-May-01 21:33N 38°18' W 123°23'9 9.3
2016-May-01 20:33N 38°10' W 123°17'9 9.4
2016-May-01 19:33N 38°02' W 123°11'9 9.2
2016-May-01 18:33N 37°56' W 123°02'10 9.8
2016-May-01 17:33N 37°51' W 122°51'10 9.8
2016-May-01 16:32N 37°46' W 122°40'9 9.3
2016-May-01 15:33N 37°49' W 122°30'3 0.9
2016-May-01 12:27N 37°52' W 122°29'0 0.0
2016-May-01 10:30N 37°52' W 122°29'0 0.0
2016-May-01 09:30N 37°52' W 122°29'0 0.0
2016-May-01 08:30N 37°52' W 122°29'0 0.0
2016-May-01 07:24N 37°52' W 122°29'0 0.0
2016-May-01 06:12N 37°52' W 122°29'0 0.0
2016-May-01 05:27N 37°52' W 122°29'0 0.0
2016-May-01 04:18N 37°52' W 122°29'0 0.0
2016-May-01 03:12N 37°52' W 122°29'0 0.0
2016-May-01 02:24N 37°52' W 122°29'0 0.0
2016-May-01 01:24N 37°52' W 122°29'0 0.0
2016-Apr-30 23:33N 37°52' W 122°29'0 0.0
2016-Apr-30 22:33N 37°52' W 122°29'0 0.0
2016-Apr-30 20:33N 37°52' W 122°29'0 0.0
2016-Apr-30 19:21N 37°52' W 122°29'0 0.0
2016-Apr-30 18:33N 37°52' W 122°29'0 0.0
2016-Apr-30 17:33N 37°52' W 122°29'0 0.0
2016-Apr-30 16:24N 37°52' W 122°29'0 0.0
2016-Apr-30 15:24N 37°52' W 122°29'0 0.0
2016-Apr-30 14:27N 37°52' W 122°29'0 0.0
2016-Apr-30 13:24N 37°52' W 122°29'0 0.0
2016-Apr-30 12:24N 37°52' W 122°29'0 0.0
2016-Apr-30 11:27N 37°52' W 122°29'0 0.0
2016-Apr-30 10:30N 37°52' W 122°29'0 0.0
2016-Apr-30 09:27N 37°52' W 122°29'0 0.0
2016-Apr-30 08:30N 37°52' W 122°29'0 0.0
2016-Apr-30 04:24N 37°52' W 122°29'0 0.0
2016-Apr-30 00:30N 37°52' W 122°29'0 0.0
2016-Apr-29 23:33N 37°52' W 122°29'0 0.0
2016-Apr-29 21:30N 37°52' W 122°29'0 0.0
2016-Apr-29 18:15N 37°52' W 122°29'0 0.0
2016-Apr-29 12:12N 37°52' W 122°29'0 0.0
2016-Apr-29 11:24N 37°52' W 122°29'0 0.0
2016-Apr-29 10:30N 37°52' W 122°29'0 0.0
2016-Apr-29 08:21N 37°52' W 122°29'0 0.0
2016-Apr-29 07:18N 37°52' W 122°29'0 0.0
2016-Apr-29 04:30N 37°52' W 122°29'0 0.0
2016-Apr-29 03:24N 37°52' W 122°29'0 0.0
2016-Apr-29 02:30N 37°52' W 122°29'0 0.0
2016-Apr-29 00:24N 37°52' W 122°29'0 0.0
2016-Apr-28 23:33N 37°52' W 122°29'0 0.0
2016-Apr-28 22:30N 37°52' W 122°29'0 0.0
2016-Apr-28 21:27N 37°52' W 122°29'0 0.0
2016-Apr-28 20:33N 37°52' W 122°29'0 0.0
2016-Apr-28 19:33N 37°52' W 122°29'0 0.0
2016-Apr-28 18:27N 37°52' W 122°29'0 0.0
2016-Apr-28 17:33N 37°52' W 122°29'0 0.0
2016-Apr-28 16:18N 37°52' W 122°29'0 0.0
2016-Apr-28 15:06N 37°52' W 122°29'0 0.0
2016-Apr-28 14:24N 37°52' W 122°29'0 0.0
2016-Apr-28 13:33N 37°52' W 122°29'0 0.0
2016-Apr-28 09:30N 37°52' W 122°29'0 0.0
2016-Apr-28 08:18N 37°52' W 122°29'0 0.0
2016-Apr-28 07:18N 37°52' W 122°29'0 0.0
2016-Apr-28 06:30N 37°52' W 122°29'0 0.0
2016-Apr-28 05:24N 37°52' W 122°29'0 0.0
2016-Apr-28 04:24N 37°52' W 122°29'0 0.0
2016-Apr-28 00:30N 37°52' W 122°29'0 0.0
2016-Apr-27 23:18N 37°52' W 122°29'0 0.0
2016-Apr-27 22:24N 37°52' W 122°29'0 0.0
2016-Apr-27 20:18N 37°52' W 122°29'0 0.0
2016-Apr-27 19:09N 37°52' W 122°29'0 0.0
2016-Apr-27 18:30N 37°52' W 122°29'0 0.0
2016-Apr-27 16:30N 37°52' W 122°29'0 0.0
2016-Apr-27 15:30N 37°52' W 122°29'0 0.0
2016-Apr-27 14:30N 37°52' W 122°29'0 0.0
2016-Apr-27 13:18N 37°52' W 122°29'0 0.0
2016-Apr-27 12:18N 37°52' W 122°29'0 0.0
2016-Apr-27 11:33N 37°52' W 122°29'0 0.0
2016-Apr-27 10:33N 37°52' W 122°29'0 0.0
2016-Apr-27 09:24N 37°52' W 122°29'0 0.0
2016-Apr-27 08:33N 37°52' W 122°29'0 0.0
2016-Apr-27 07:30N 37°52' W 122°29'0 0.0
2016-Apr-27 06:30N 37°52' W 122°29'0 0.0
2016-Apr-27 05:30N 37°52' W 122°29'0 0.0
2016-Apr-27 04:33N 37°52' W 122°29'0 0.0
2016-Apr-27 03:33N 37°52' W 122°29'0 0.0
2016-Apr-27 02:33N 37°52' W 122°29'0 0.0
2016-Apr-27 01:30N 37°52' W 122°29'0 0.0
2016-Apr-27 00:24N 37°52' W 122°29'0 0.0
2016-Apr-26 23:30N 37°52' W 122°29'0 0.0
2016-Apr-26 22:30N 37°52' W 122°29'0 0.0
2016-Apr-26 21:30N 37°52' W 122°29'0 0.0
2016-Apr-26 20:30N 37°52' W 122°29'0 0.0
2016-Apr-26 19:24N 37°52' W 122°29'0 0.0
2016-Apr-26 18:33N 37°52' W 122°29'0 0.0
2016-Apr-26 16:12N 37°52' W 122°29'0 0.0
2016-Apr-26 15:30N 37°52' W 122°29'0 0.0
2016-Apr-26 14:30N 37°52' W 122°29'0 0.0
2016-Apr-26 13:30N 37°52' W 122°29'0 0.0
2016-Apr-26 11:18N 37°52' W 122°29'0 0.0
2016-Apr-26 10:30N 37°52' W 122°29'0 0.0
2016-Apr-26 09:30N 37°52' W 122°29'0 0.0
2016-Apr-26 08:30N 37°52' W 122°29'0 0.0
2016-Apr-26 07:18N 37°52' W 122°29'0 0.0
2016-Apr-26 06:24N 37°52' W 122°29'0 0.0
2016-Apr-26 05:30N 37°52' W 122°29'0 0.0
2016-Apr-26 04:24N 37°52' W 122°29'0 0.0
2016-Apr-26 03:30N 37°52' W 122°29'0 0.0
2016-Apr-26 02:30N 37°52' W 122°29'0 0.0
2016-Apr-26 01:24N 37°52' W 122°29'0 0.0
2016-Apr-26 00:30N 37°52' W 122°29'0 0.0
2016-Apr-25 23:14N 37°52' W 122°29'0 0.0
2016-Apr-25 22:32N 37°52' W 122°29'0 0.0
2016-Apr-25 21:29N 37°52' W 122°29'0 0.0
2016-Apr-25 20:30N 37°52' W 122°29'0 0.0
2016-Apr-25 19:30N 37°52' W 122°29'0 0.0
2016-Apr-25 18:29N 37°52' W 122°29'0 0.0
2016-Apr-25 17:17N 37°52' W 122°29'0 0.0
2016-Apr-25 16:29N 37°52' W 122°29'0 0.0
2016-Apr-25 15:29N 37°52' W 122°29'0 0.0
2016-Apr-25 14:32N 37°52' W 122°29'0 0.0
2016-Apr-25 13:32N 37°52' W 122°29'0 0.0
2016-Apr-25 12:32N 37°52' W 122°29'0 0.0
2016-Apr-25 11:26N 37°52' W 122°29'0 0.0
2016-Apr-25 07:32N 37°52' W 122°29'0 0.0
2016-Apr-25 06:32N 37°52' W 122°29'0 0.0
2016-Apr-25 05:32N 37°52' W 122°29'0 0.0
2016-Apr-25 04:05N 37°52' W 122°29'0 0.0
2016-Apr-25 03:29N 37°52' W 122°29'0 0.0
2016-Apr-25 02:29N 37°52' W 122°29'0 0.0
2016-Apr-25 01:29N 37°52' W 122°29'0 0.0
2016-Apr-25 00:29N 37°52' W 122°29'0 0.0
2016-Apr-24 23:29N 37°52' W 122°29'0 0.0
2016-Apr-24 22:26N 37°52' W 122°29'0 0.0
2016-Apr-24 21:32N 37°52' W 122°29'0 0.0
2016-Apr-24 20:29N 37°52' W 122°29'0 0.0
2016-Apr-24 19:17N 37°52' W 122°29'0 0.0
2016-Apr-24 18:29N 37°52' W 122°29'0 0.0
2016-Apr-24 17:23N 37°52' W 122°29'0 0.0
2016-Apr-24 16:11N 37°52' W 122°29'0 0.0
2016-Apr-24 15:29N 37°52' W 122°29'0 0.0
2016-Apr-24 14:32N 37°52' W 122°29'0 0.0
2016-Apr-24 13:29N 37°52' W 122°29'0 0.0
2016-Apr-24 12:29N 37°52' W 122°29'0 0.0
2016-Apr-24 11:29N 37°52' W 122°29'0 0.0
2016-Apr-24 10:29N 37°52' W 122°29'0 0.0
2016-Apr-24 09:29N 37°52' W 122°29'0 0.0
2016-Apr-24 08:29N 37°52' W 122°29'0 0.0
2016-Apr-24 07:17N 37°52' W 122°29'0 0.0
2016-Apr-24 06:29N 37°52' W 122°29'0 0.0
2016-Apr-24 05:29N 37°52' W 122°29'0 0.0
2016-Apr-24 04:32N 37°52' W 122°29'0 0.0
2016-Apr-24 03:29N 37°52' W 122°29'0 0.0
2016-Apr-24 02:29N 37°52' W 122°29'0 0.0
2016-Apr-24 01:29N 37°52' W 122°29'0 0.0
2016-Apr-24 00:29N 37°52' W 122°29'0 0.0
2016-Apr-23 23:32N 37°52' W 122°29'0 0.0
2016-Apr-23 22:32N 37°52' W 122°29'0 0.0
2016-Apr-23 21:23N 37°52' W 122°29'0 0.0
2016-Apr-23 20:29N 37°52' W 122°29'0 0.0
2016-Apr-23 19:29N 37°52' W 122°29'0 0.0
2016-Apr-23 18:29N 37°52' W 122°29'0 0.0
2016-Apr-23 17:29N 37°52' W 122°29'0 0.0
2016-Apr-23 16:29N 37°52' W 122°29'0 0.0
2016-Apr-23 15:17N 37°52' W 122°29'0 0.0
2016-Apr-23 14:23N 37°52' W 122°29'0 0.0
2016-Apr-23 13:29N 37°52' W 122°29'0 0.0
2016-Apr-23 12:17N 37°52' W 122°29'0 0.0
2016-Apr-23 11:29N 37°52' W 122°29'0 0.0
2016-Apr-23 10:17N 37°52' W 122°29'0 0.0
2016-Apr-23 09:29N 37°52' W 122°29'0 0.0
2016-Apr-23 08:32N 37°52' W 122°29'0 0.0
2016-Apr-23 07:29N 37°52' W 122°29'0 0.0
2016-Apr-23 06:29N 37°52' W 122°29'0 0.0
2016-Apr-23 05:29N 37°52' W 122°29'0 0.0
2016-Apr-23 04:29N 37°52' W 122°29'0 0.0
2016-Apr-23 03:29N 37°52' W 122°29'0 0.0
2016-Apr-23 02:29N 37°52' W 122°29'0 0.0
2016-Apr-23 01:29N 37°52' W 122°29'0 0.0
2016-Apr-23 00:29N 37°52' W 122°29'0 0.0
2016-Apr-22 23:32N 37°52' W 122°29'0 0.0
2016-Apr-22 22:29N 37°52' W 122°29'0 0.0
2016-Apr-22 21:32N 37°52' W 122°29'0 0.0
2016-Apr-22 20:29N 37°52' W 122°29'0 0.0
2016-Apr-22 19:29N 37°52' W 122°29'0 0.0
2016-Apr-22 18:23N 37°52' W 122°29'0 0.0
2016-Apr-22 17:29N 37°52' W 122°29'0 0.0
2016-Apr-22 16:32N 37°52' W 122°29'0 0.0
2016-Apr-22 15:23N 37°52' W 122°29'0 0.0
2016-Apr-22 14:32N 37°52' W 122°29'0 0.0
2016-Apr-22 13:29N 37°52' W 122°29'0 0.0
2016-Apr-22 12:32N 37°52' W 122°29'0 0.0
2016-Apr-22 11:32N 37°52' W 122°29'0 0.0
2016-Apr-22 10:29N 37°52' W 122°29'0 0.0
2016-Apr-22 09:29N 37°52' W 122°29'0 0.0
2016-Apr-22 08:32N 37°52' W 122°29'0 0.0
2016-Apr-22 07:29N 37°52' W 122°29'0 0.0
2016-Apr-22 06:29N 37°52' W 122°29'  

Dump ship's entire track history